createdAt,value
2019-01-29T00:00:56.523Z,100125.03
2019-01-29T00:03:25.383Z,100125.22
2019-01-29T00:05:54.243Z,100125.23
2019-01-29T00:08:23.114Z,100123.56
2019-01-29T00:10:51.986Z,100123.00
2019-01-29T00:13:20.878Z,100124.84
2019-01-29T00:15:49.750Z,100116.40
2019-01-29T00:18:18.606Z,100114.20
2019-01-29T00:20:47.500Z,100115.80
2019-01-29T00:23:16.340Z,100115.44
2019-01-29T00:25:45.217Z,100110.97
2019-01-29T00:28:14.111Z,100115.06
2019-01-29T00:30:42.969Z,100117.86
2019-01-29T00:33:11.855Z,100116.16
2019-01-29T00:35:40.735Z,100118.63
2019-01-29T00:38:09.625Z,100119.62
2019-01-29T00:40:38.479Z,100123.91
2019-01-29T00:43:07.394Z,100119.91
2019-01-29T00:45:36.277Z,100118.41
2019-01-29T00:48:05.232Z,100110.59
2019-01-29T00:50:34.120Z,100109.73
2019-01-29T00:53:03.010Z,100109.83
2019-01-29T00:55:31.872Z,100122.24
2019-01-29T00:58:00.733Z,100122.52
2019-01-29T01:00:29.624Z,100129.03
2019-01-29T01:02:58.482Z,100123.70
2019-01-29T01:05:27.363Z,100135.23
2019-01-29T01:07:56.257Z,100128.66
2019-01-29T01:10:25.140Z,100133.13
2019-01-29T01:12:54.014Z,100132.18
2019-01-29T01:15:22.888Z,100137.80
2019-01-29T01:17:51.765Z,100141.70
2019-01-29T01:20:20.649Z,100142.95
2019-01-29T01:22:51.322Z,100148.58
2019-01-29T01:25:18.410Z,100146.07
2019-01-29T01:27:47.280Z,100140.64
2019-01-29T01:30:17.924Z,100139.21
2019-01-29T01:32:46.824Z,100149.89
2019-01-29T01:35:15.784Z,100144.64
2019-01-29T01:37:44.684Z,100148.09
2019-01-29T01:40:16.544Z,100153.05
2019-01-29T01:42:45.456Z,100149.43
2019-01-29T01:45:14.326Z,100155.44
2019-01-29T01:47:43.240Z,100155.11
2019-01-29T01:50:12.722Z,100158.33
2019-01-29T01:52:41.612Z,100160.52
2019-01-29T01:55:12.678Z,100163.41
2019-01-29T01:57:41.568Z,100164.73
2019-01-29T02:00:13.610Z,100164.36
2019-01-29T02:02:42.518Z,100165.23
2019-01-29T02:05:11.400Z,100168.67
2019-01-29T02:07:40.305Z,100174.34
2019-01-29T02:10:15.746Z,100174.73
2019-01-29T02:12:44.654Z,100181.11
2019-01-29T02:15:13.531Z,100176.34
2019-01-29T02:17:42.420Z,100175.96
2019-01-29T02:20:11.654Z,100176.94
2019-01-29T02:22:40.530Z,100174.30
2019-01-29T02:25:09.404Z,100175.48
2019-01-29T02:27:38.291Z,100176.28
2019-01-29T02:30:10.672Z,100175.79
2019-01-29T02:32:39.540Z,100174.96
2019-01-29T02:35:08.450Z,100177.25
2019-01-29T02:37:37.336Z,100171.05
2019-01-29T02:40:08.666Z,100171.80
2019-01-29T02:42:37.569Z,100172.12
2019-01-29T02:45:08.312Z,100167.55
2019-01-29T02:47:37.179Z,100167.05
2019-01-29T02:50:06.306Z,100168.28
2019-01-29T02:52:35.150Z,100170.19
2019-01-29T02:55:04.111Z,100166.85
2019-01-29T02:57:32.982Z,100170.66
2019-01-29T03:00:01.878Z,100166.17
2019-01-29T03:02:30.739Z,100163.91
2019-01-29T03:04:59.629Z,100163.44
2019-01-29T03:07:28.506Z,100162.96
2019-01-29T03:09:57.363Z,100157.28
2019-01-29T03:12:26.241Z,100160.47
2019-01-29T03:14:55.105Z,100159.03
2019-01-29T03:17:23.998Z,100161.70
2019-01-29T03:19:52.875Z,100161.52
2019-01-29T03:22:21.727Z,100158.86
2019-01-29T03:24:50.633Z,100160.11
2019-01-29T03:27:19.518Z,100157.66
2019-01-29T03:29:48.407Z,100160.16
2019-01-29T03:32:17.271Z,100159.11
2019-01-29T03:34:46.164Z,100155.98
2019-01-29T03:37:15.040Z,100162.47
2019-01-29T03:39:43.894Z,100161.52
2019-01-29T03:42:12.770Z,100163.03
2019-01-29T03:44:41.634Z,100161.04
2019-01-29T03:47:10.534Z,100168.55
2019-01-29T03:49:39.383Z,100175.42
2019-01-29T03:52:08.268Z,100168.48
2019-01-29T03:54:37.146Z,100170.48
2019-01-29T03:57:06.043Z,100169.32
2019-01-29T03:59:34.909Z,100162.08
2019-01-29T04:02:03.850Z,100166.45
2019-01-29T04:04:32.727Z,100168.38
2019-01-29T04:07:01.602Z,100162.28
2019-01-29T04:09:30.509Z,100161.80
2019-01-29T04:11:59.383Z,100158.59
2019-01-29T04:14:28.277Z,100164.17
2019-01-29T04:16:57.142Z,100165.50
2019-01-29T04:19:26.070Z,100160.04
2019-01-29T04:21:55.315Z,100154.70
2019-01-29T04:24:24.218Z,100158.25
2019-01-29T04:26:53.067Z,100157.47
2019-01-29T04:29:21.959Z,100152.99
2019-01-29T04:31:50.827Z,100161.47
2019-01-29T04:34:19.715Z,100162.78
2019-01-29T04:36:48.600Z,100162.59
2019-01-29T04:39:17.540Z,100160.88
2019-01-29T04:41:46.409Z,100164.02
2019-01-29T04:44:15.301Z,100161.55
2019-01-29T04:46:44.187Z,100157.22
2019-01-29T04:49:13.094Z,100157.52
2019-01-29T04:51:41.959Z,100156.59
2019-01-29T04:54:10.827Z,100154.02
2019-01-29T04:56:39.709Z,100150.86
2019-01-29T04:59:08.596Z,100150.77
2019-01-29T05:01:37.478Z,100147.24
2019-01-29T05:04:06.438Z,100155.95
2019-01-29T05:06:35.297Z,100154.30
2019-01-29T05:09:07.902Z,100152.58
2019-01-29T05:11:36.774Z,100155.72
2019-01-29T05:14:06.006Z,100154.39
2019-01-29T05:16:34.895Z,100151.45
2019-01-29T05:19:03.746Z,100150.80
2019-01-29T05:21:32.661Z,100146.13
2019-01-29T05:24:06.911Z,100143.17
2019-01-29T05:26:30.425Z,100142.22
2019-01-29T05:28:59.320Z,100142.21
2019-01-29T05:31:28.187Z,100139.38
2019-01-29T05:33:57.057Z,100143.00
2019-01-29T05:36:25.948Z,100143.84
2019-01-29T05:38:54.810Z,100141.64
2019-01-29T05:41:23.706Z,100141.35
2019-01-29T05:43:52.567Z,100144.88
2019-01-29T05:46:21.454Z,100142.21
2019-01-29T05:48:50.324Z,100142.14
2019-01-29T05:51:19.200Z,100144.62
2019-01-29T05:53:48.083Z,100150.17
2019-01-29T05:56:16.969Z,100148.92
2019-01-29T05:58:45.943Z,100148.81
2019-01-29T06:01:14.766Z,100150.84
2019-01-29T06:03:43.660Z,100150.36
2019-01-29T06:06:12.548Z,100154.45
2019-01-29T06:08:41.487Z,100161.52
2019-01-29T06:11:10.357Z,100156.67
2019-01-29T06:13:39.256Z,100162.69
2019-01-29T06:16:08.145Z,100157.33
2019-01-29T06:18:37.020Z,100162.09
2019-01-29T06:21:05.910Z,100160.78
2019-01-29T06:23:34.795Z,100158.30
2019-01-29T06:26:03.705Z,100158.86
2019-01-29T06:28:32.559Z,100155.63
2019-01-29T06:31:01.411Z,100156.77
2019-01-29T06:33:30.282Z,100160.11
2019-01-29T06:35:59.138Z,100152.98
2019-01-29T06:38:28.027Z,100156.97
2019-01-29T06:40:56.894Z,100150.50
2019-01-29T06:43:25.771Z,100147.72
2019-01-29T06:45:54.677Z,100142.37
2019-01-29T06:48:23.539Z,100143.70
2019-01-29T06:50:52.399Z,100147.91
2019-01-29T06:53:21.290Z,100145.81
2019-01-29T06:55:50.178Z,100141.63
2019-01-29T06:58:19.075Z,100138.29
2019-01-29T07:00:47.985Z,100142.86
2019-01-29T07:03:16.848Z,100140.00
2019-01-29T07:05:45.762Z,100147.55
2019-01-29T07:08:14.624Z,100138.48
2019-01-29T07:10:44.286Z,100140.28
2019-01-29T07:13:12.363Z,100143.90
2019-01-29T07:16:12.705Z,100138.38
2019-01-29T07:18:59.961Z,100140.39
2019-01-29T07:21:28.853Z,100129.34
2019-01-29T07:23:58.082Z,100134.09
2019-01-29T07:26:26.874Z,100133.72
2019-01-29T07:28:55.773Z,100129.72
2019-01-29T07:31:24.638Z,100126.92
2019-01-29T07:33:53.524Z,100127.43
2019-01-29T07:36:22.477Z,100129.50
2019-01-29T07:38:51.294Z,100127.05
2019-01-29T07:41:20.154Z,100127.98
2019-01-29T07:43:49.040Z,100130.48
2019-01-29T07:46:18.362Z,100133.70
2019-01-29T07:48:47.260Z,100134.38
2019-01-29T07:51:16.106Z,100126.07
2019-01-29T07:53:44.989Z,100125.17
2019-01-29T07:56:19.620Z,100122.29
2019-01-29T07:58:51.328Z,100119.71
2019-01-29T08:01:20.711Z,100127.02
2019-01-29T08:03:49.947Z,100117.67
2019-01-29T08:06:19.130Z,100117.55
2019-01-29T08:08:48.543Z,100119.16
2019-01-29T08:11:17.625Z,100120.79
2019-01-29T08:13:46.709Z,100124.98
2019-01-29T08:16:15.877Z,100122.56
2019-01-29T08:18:45.145Z,100116.73
2019-01-29T08:21:16.488Z,100117.89
2019-01-29T08:23:45.806Z,100107.81
2019-01-29T08:26:17.487Z,100106.48
2019-01-29T08:28:46.904Z,100114.31
2019-01-29T08:31:20.425Z,100114.55
2019-01-29T08:33:50.094Z,100119.08
2019-01-29T08:36:18.908Z,100110.24
2019-01-29T08:38:47.789Z,100108.80
2019-01-29T08:41:16.674Z,100114.14
2019-01-29T08:43:45.557Z,100099.04
2019-01-29T08:46:14.483Z,100099.64
2019-01-29T08:48:43.340Z,100093.44
2019-01-29T08:51:12.193Z,100096.94
2019-01-29T08:53:41.089Z,100094.06
2019-01-29T08:56:10.120Z,100096.75
2019-01-29T08:58:38.933Z,100092.30
2019-01-29T09:01:08.835Z,100093.91
2019-01-29T09:03:36.846Z,100089.78
2019-01-29T09:06:05.828Z,100089.61
2019-01-29T09:08:34.690Z,100095.92
2019-01-29T09:11:03.592Z,100083.93
2019-01-29T09:13:32.471Z,100084.20
2019-01-29T09:16:01.366Z,100085.71
2019-01-29T09:18:30.247Z,100075.83
2019-01-29T09:20:59.151Z,100072.36
2019-01-29T09:23:28.005Z,100063.00
2019-01-29T09:25:56.896Z,100055.22
2019-01-29T09:28:25.795Z,100056.14
2019-01-29T09:30:54.719Z,100056.47
2019-01-29T09:33:23.588Z,100061.66
2019-01-29T09:35:52.451Z,100059.59
2019-01-29T09:38:21.331Z,100049.47
2019-01-29T09:40:50.220Z,100040.30
2019-01-29T09:43:19.125Z,100043.58
2019-01-29T09:45:48.015Z,100039.80
2019-01-29T09:48:16.891Z,100037.83
2019-01-29T09:50:45.782Z,100038.67
2019-01-29T09:53:14.650Z,100031.27
2019-01-29T09:55:43.574Z,100028.23
2019-01-29T09:58:12.449Z,100027.22
2019-01-29T10:00:41.344Z,100020.19
2019-01-29T10:03:10.247Z,100023.20
2019-01-29T10:05:39.118Z,100026.38
2019-01-29T10:08:08.137Z,100016.86
2019-01-29T10:10:37.035Z,100023.45
2019-01-29T10:13:05.985Z,100017.98
2019-01-29T10:15:35.656Z,100021.84
2019-01-29T10:18:04.595Z,100021.19
2019-01-29T10:20:33.501Z,100014.78
2019-01-29T10:23:02.389Z,100014.93
2019-01-29T10:25:37.593Z,100013.01
2019-01-29T10:28:00.164Z,100014.38
2019-01-29T10:30:29.031Z,100009.32
2019-01-29T10:32:57.926Z,100012.00
2019-01-29T10:35:27.059Z,100003.44
2019-01-29T10:37:55.945Z,100008.27
2019-01-29T10:40:25.611Z,99996.02
2019-01-29T10:42:54.722Z,100001.09
2019-01-29T10:45:24.283Z,99994.72
2019-01-29T10:47:53.158Z,99997.35
2019-01-29T10:50:23.224Z,100002.66
2019-01-29T10:52:52.246Z,99985.23
2019-01-29T10:55:21.207Z,99986.53
2019-01-29T10:57:50.083Z,99978.86
2019-01-29T11:00:21.247Z,99978.94
2019-01-29T11:02:50.139Z,99984.38
2019-01-29T11:05:19.397Z,99973.86
2019-01-29T11:07:48.309Z,99963.54
2019-01-29T11:10:17.236Z,99971.17
2019-01-29T11:12:46.118Z,99961.73
2019-01-29T11:15:23.598Z,99968.13
2019-01-29T11:17:52.496Z,99957.66
2019-01-29T11:20:21.393Z,99958.51
2019-01-29T11:22:50.270Z,99948.72
2019-01-29T11:25:21.496Z,99952.22
2019-01-29T11:27:50.402Z,99942.59
2019-01-29T11:30:21.438Z,99933.04
2019-01-29T11:32:50.321Z,99928.09
2019-01-29T11:35:19.236Z,99927.46
2019-01-29T11:37:48.111Z,99924.52
2019-01-29T11:40:19.365Z,99914.86
2019-01-29T11:42:48.247Z,99923.42
2019-01-29T11:45:20.321Z,99913.26
2019-01-29T11:47:49.180Z,99902.23
2019-01-29T11:50:18.064Z,99909.34
2019-01-29T11:52:46.946Z,99902.21
2019-01-29T11:55:15.803Z,99910.69
2019-01-29T11:57:44.695Z,99906.58
2019-01-29T12:00:16.485Z,99899.79
2019-01-29T12:02:45.384Z,99890.70
2019-01-29T12:05:14.221Z,99888.63
2019-01-29T12:07:43.098Z,99885.96
2019-01-29T12:10:11.992Z,99876.28
2019-01-29T12:12:40.909Z,99877.97
2019-01-29T12:15:11.519Z,99876.03
2019-01-29T12:17:40.388Z,99865.44
2019-01-29T12:20:10.440Z,99862.38
2019-01-29T12:22:39.300Z,99863.63
2019-01-29T12:25:08.297Z,99863.98
2019-01-29T12:27:37.178Z,99866.88
2019-01-29T12:30:09.014Z,99857.84
2019-01-29T12:32:37.974Z,99867.41
2019-01-29T12:35:07.486Z,99857.49
2019-01-29T12:37:36.385Z,99858.41
2019-01-29T12:40:06.235Z,99838.76
2019-01-29T12:42:35.133Z,99836.88
2019-01-29T12:45:04.557Z,99841.34
2019-01-29T12:47:33.433Z,99828.48
2019-01-29T12:50:02.373Z,99833.97
2019-01-29T12:52:42.610Z,99821.26
2019-01-29T12:55:11.419Z,99819.89
2019-01-29T12:57:40.385Z,99825.97
2019-01-29T13:00:11.571Z,99823.38
2019-01-29T13:02:40.491Z,99827.91
2019-01-29T13:05:10.952Z,99816.78
2019-01-29T13:07:39.831Z,99805.84
2019-01-29T13:10:12.417Z,99806.52
2019-01-29T13:12:41.301Z,99811.31
2019-01-29T13:15:11.316Z,99792.08
2019-01-29T13:17:40.208Z,99798.92
2019-01-29T13:20:09.800Z,99793.80
2019-01-29T13:22:38.671Z,99782.61
2019-01-29T13:25:08.656Z,99783.85
2019-01-29T13:27:37.486Z,99784.52
2019-01-29T13:30:09.808Z,99780.94
2019-01-29T13:32:38.700Z,99774.66
2019-01-29T13:35:07.898Z,99780.63
2019-01-29T13:37:36.710Z,99777.22
2019-01-29T13:40:06.469Z,99766.89
2019-01-29T13:42:35.389Z,99766.52
2019-01-29T13:45:05.374Z,99771.42
2019-01-29T13:47:34.227Z,99754.33
2019-01-29T13:50:03.083Z,99760.69
2019-01-29T13:52:34.139Z,99748.16
2019-01-29T13:55:03.221Z,99751.34
2019-01-29T13:57:38.245Z,99741.41
2019-01-29T14:00:14.418Z,99741.34
2019-01-29T14:02:43.554Z,99729.40
2019-01-29T14:05:14.734Z,99721.93
2019-01-29T14:07:43.909Z,99723.14
2019-01-29T14:10:15.326Z,99718.13
2019-01-29T14:12:44.344Z,99718.92
2019-01-29T14:15:16.656Z,99714.53
2019-01-29T14:17:47.230Z,99711.05
2019-01-29T14:20:19.024Z,99711.55
2019-01-29T14:22:49.476Z,99709.71
2019-01-29T14:25:19.921Z,99717.28
2019-01-29T14:27:51.802Z,99704.14
2019-01-29T14:30:21.282Z,99695.78
2019-01-29T14:32:51.695Z,99696.56
2019-01-29T14:35:22.108Z,99685.73
2019-01-29T14:38:31.235Z,99694.19
2019-01-29T14:41:00.832Z,99680.64
2019-01-29T14:43:31.356Z,99682.03
2019-01-29T14:46:00.319Z,99676.22
2019-01-29T14:48:31.258Z,99670.47
2019-01-29T14:51:00.396Z,99677.97
2019-01-29T14:53:29.517Z,99666.70
2019-01-29T14:55:58.481Z,99669.41
2019-01-29T14:58:27.726Z,99659.03
2019-01-29T15:00:56.771Z,99656.00
2019-01-29T15:03:25.934Z,99649.34
2019-01-29T15:05:58.180Z,99649.42
2019-01-29T15:08:27.332Z,99653.67
2019-01-29T15:10:56.393Z,99652.66
2019-01-29T15:13:25.680Z,99643.20
2019-01-29T15:15:57.569Z,99646.42
2019-01-29T15:18:30.154Z,99641.30
2019-01-29T15:20:59.101Z,99643.05
2019-01-29T15:23:28.240Z,99638.72
2019-01-29T15:25:57.353Z,99644.52
2019-01-29T15:28:26.492Z,99635.06
2019-01-29T15:30:55.519Z,99637.66
2019-01-29T15:33:24.630Z,99632.70
2019-01-29T15:35:53.857Z,99625.15
2019-01-29T15:38:22.881Z,99626.64
2019-01-29T15:40:52.136Z,99626.41
2019-01-29T15:43:21.693Z,99616.05
2019-01-29T15:45:50.846Z,99613.41
2019-01-29T15:48:19.822Z,99607.31
2019-01-29T15:50:48.988Z,99607.44
2019-01-29T15:53:19.238Z,99601.95
2019-01-29T15:55:48.380Z,99600.01
2019-01-29T15:58:17.854Z,99594.28
2019-01-29T16:00:47.011Z,99596.59
2019-01-29T16:03:16.190Z,99594.28
2019-01-29T16:05:47.210Z,99592.34
2019-01-29T16:08:16.628Z,99586.97
2019-01-29T16:10:45.932Z,99582.82
2019-01-29T16:13:14.985Z,99577.39
2019-01-29T16:15:44.149Z,99575.36
2019-01-29T16:18:16.011Z,99573.54
2019-01-29T16:20:45.146Z,99569.28
2019-01-29T16:23:14.262Z,99570.25
2019-01-29T16:25:43.452Z,99563.83
2019-01-29T16:28:12.780Z,99558.22
2019-01-29T16:30:44.460Z,99551.09
2019-01-29T16:33:13.465Z,99553.77
2019-01-29T16:35:42.534Z,99548.94
2019-01-29T16:38:11.675Z,99552.06
2019-01-29T16:40:40.930Z,99550.23
2019-01-29T16:43:10.305Z,99546.86
2019-01-29T16:45:41.972Z,99547.84
2019-01-29T16:48:11.456Z,99545.80
2019-01-29T16:50:40.640Z,99539.14
2019-01-29T16:53:09.815Z,99536.34
2019-01-29T16:55:38.750Z,99532.23
2019-01-29T16:58:10.581Z,99534.91
2019-01-29T17:00:39.693Z,99527.14
2019-01-29T17:03:11.640Z,99521.01
2019-01-29T17:05:41.683Z,99516.62
2019-01-29T17:08:11.968Z,99512.03
2019-01-29T17:10:39.854Z,99519.58
2019-01-29T17:13:09.033Z,99518.50
2019-01-29T17:15:39.825Z,99518.20
2019-01-29T17:18:08.963Z,99517.14
2019-01-29T17:20:39.130Z,99513.27
2019-01-29T17:23:11.393Z,99514.03
2019-01-29T17:25:43.344Z,99507.36
2019-01-29T17:28:16.905Z,99505.29
2019-01-29T17:30:44.512Z,99497.64
2019-01-29T17:33:15.338Z,99495.23
2019-01-29T17:35:47.158Z,99498.39
2019-01-29T17:38:16.414Z,99493.42
2019-01-29T17:40:46.613Z,99493.66
2019-01-29T17:43:18.846Z,99492.92
2019-01-29T17:45:51.826Z,99477.98
2019-01-29T17:48:20.564Z,99481.38
2019-01-29T17:50:49.621Z,99479.32
2019-01-29T17:53:18.746Z,99477.02
2019-01-29T17:55:48.356Z,99471.30
2019-01-29T17:58:23.444Z,99474.69
2019-01-29T18:00:58.196Z,99471.30
2019-01-29T18:03:27.318Z,99465.70
2019-01-29T18:05:59.398Z,99464.75
2019-01-29T18:08:28.615Z,99464.36
2019-01-29T18:10:57.595Z,99462.44
2019-01-29T18:13:30.283Z,99455.61
2019-01-29T18:16:05.199Z,99463.78
2019-01-29T18:18:31.926Z,99464.12
2019-01-29T18:21:01.222Z,99459.88
2019-01-29T18:23:32.991Z,99457.64
2019-01-29T18:26:02.073Z,99455.86
2019-01-29T18:28:31.455Z,99448.17
2019-01-29T18:31:09.267Z,99446.47
2019-01-29T18:33:40.620Z,99440.27
2019-01-29T18:36:12.771Z,99445.76
2019-01-29T18:38:45.050Z,99433.27
2019-01-29T18:41:14.540Z,99430.59
2019-01-29T18:43:46.424Z,99433.51
2019-01-29T18:46:15.419Z,99428.86
2019-01-29T18:48:44.714Z,99433.03
2019-01-29T18:51:13.831Z,99424.65
2019-01-29T18:53:43.471Z,99427.32
2019-01-29T18:56:12.529Z,99420.39
2019-01-29T18:58:42.671Z,99423.66
2019-01-29T19:01:12.094Z,99415.27
2019-01-29T19:03:41.296Z,99419.98
2019-01-29T19:06:10.489Z,99423.42
2019-01-29T19:08:39.589Z,99415.86
2019-01-29T19:11:08.735Z,99414.72
2019-01-29T19:13:37.827Z,99412.42
2019-01-29T19:16:07.117Z,99408.81
2019-01-29T19:18:36.167Z,99415.02
2019-01-29T19:21:05.468Z,99408.20
2019-01-29T19:23:34.741Z,99410.39
2019-01-29T19:26:04.028Z,99409.90
2019-01-29T19:28:33.069Z,99405.73
2019-01-29T19:31:04.759Z,99405.53
2019-01-29T19:33:37.283Z,99408.72
2019-01-29T19:36:06.099Z,99405.02
2019-01-29T19:38:35.299Z,99396.41
2019-01-29T19:41:12.332Z,99398.81
2019-01-29T19:43:46.494Z,99398.20
2019-01-29T19:46:20.975Z,99393.86
2019-01-29T19:48:53.513Z,99394.70
2019-01-29T19:51:26.789Z,99392.16
2019-01-29T19:53:56.216Z,99390.09
2019-01-29T19:56:29.452Z,99387.66
2019-01-29T19:58:58.813Z,99389.14
2019-01-29T20:01:28.055Z,99384.86
2019-01-29T20:03:57.149Z,99388.27
2019-01-29T20:06:31.087Z,99386.47
2019-01-29T20:09:01.438Z,99383.31
2019-01-29T20:11:33.067Z,99380.36
2019-01-29T20:14:02.053Z,99380.27
2019-01-29T20:16:31.280Z,99378.47
2019-01-29T20:19:00.348Z,99374.44
2019-01-29T20:21:29.397Z,99371.39
2019-01-29T20:24:01.214Z,99376.02
2019-01-29T20:26:30.796Z,99373.19
2019-01-29T20:28:59.929Z,99368.59
2019-01-29T20:31:28.777Z,99368.97
2019-01-29T20:33:57.675Z,99363.25
2019-01-29T20:36:26.527Z,99360.36
2019-01-29T20:38:55.418Z,99364.83
2019-01-29T20:41:24.276Z,99363.34
2019-01-29T20:43:53.155Z,99362.01
2019-01-29T20:46:22.054Z,99361.64
2019-01-29T20:48:50.959Z,99358.48
2019-01-29T20:51:19.851Z,99352.38
2019-01-29T20:53:48.749Z,99356.30
2019-01-29T20:56:17.608Z,99353.98
2019-01-29T20:58:52.703Z,99351.31
2019-01-29T21:01:16.529Z,99351.88
2019-01-29T21:03:45.563Z,99349.24
2019-01-29T21:06:14.436Z,99341.95
2019-01-29T21:08:43.294Z,99333.69
2019-01-29T21:11:12.183Z,99328.94
2019-01-29T21:13:41.046Z,99326.27
2019-01-29T21:16:09.998Z,99318.85
2019-01-29T21:18:38.939Z,99316.17
2019-01-29T21:21:07.838Z,99312.47
2019-01-29T21:23:36.740Z,99310.80
2019-01-29T21:26:05.754Z,99300.37
2019-01-29T21:28:34.509Z,99298.31
2019-01-29T21:31:03.439Z,99294.70
2019-01-29T21:33:32.316Z,99289.75
2019-01-29T21:36:01.215Z,99286.17
2019-01-29T21:38:30.072Z,99282.51
2019-01-29T21:40:58.984Z,99283.96
2019-01-29T21:43:27.861Z,99284.09
2019-01-29T21:45:56.747Z,99275.74
2019-01-29T21:48:25.616Z,99273.71
2019-01-29T21:50:54.501Z,99268.13
2019-01-29T21:53:23.384Z,99264.72
2019-01-29T21:55:52.240Z,99262.77
2019-01-29T21:58:21.143Z,99254.67
2019-01-29T22:00:50.003Z,99248.36
2019-01-29T22:03:18.910Z,99246.05
2019-01-29T22:05:47.771Z,99245.32
2019-01-29T22:08:16.650Z,99238.03
2019-01-29T22:10:45.509Z,99235.72
2019-01-29T22:13:14.394Z,99238.67
2019-01-29T22:15:43.274Z,99235.23
2019-01-29T22:18:15.407Z,99223.20
2019-01-29T22:20:44.309Z,99223.13
2019-01-29T22:23:13.267Z,99220.20
2019-01-29T22:25:42.118Z,99216.20
2019-01-29T22:28:11.466Z,99215.83
2019-01-29T22:30:41.910Z,99218.87
2019-01-29T22:33:10.773Z,99205.63
2019-01-29T22:35:39.612Z,99206.48
2019-01-29T22:38:08.668Z,99207.77
2019-01-29T22:40:38.100Z,99198.53
2019-01-29T22:43:06.904Z,99195.72
2019-01-29T22:45:35.765Z,99194.61
2019-01-29T22:48:06.000Z,99191.33
2019-01-29T22:50:36.932Z,99196.67
2019-01-29T22:53:05.831Z,99192.34
2019-01-29T22:55:34.722Z,99187.84
2019-01-29T22:58:03.611Z,99193.32
2019-01-29T23:01:08.648Z,99193.44
2019-01-29T23:03:41.123Z,99186.80
2019-01-29T23:06:21.006Z,99184.00
2019-01-29T23:08:49.891Z,99180.93
2019-01-29T23:11:18.754Z,99170.97
2019-01-29T23:13:47.633Z,99167.88
2019-01-29T23:16:16.650Z,99164.28
2019-01-29T23:18:45.540Z,99154.56
2019-01-29T23:21:14.420Z,99157.64
2019-01-29T23:23:43.308Z,99152.25
2019-01-29T23:26:12.180Z,99150.27
2019-01-29T23:28:41.116Z,99145.70
2019-01-29T23:31:10.007Z,99142.33
2019-01-29T23:33:38.858Z,99136.02
2019-01-29T23:36:07.765Z,99134.09
2019-01-29T23:38:36.645Z,99130.20
2019-01-29T23:41:05.554Z,99128.87
2019-01-29T23:43:34.425Z,99124.86
2019-01-29T23:46:03.321Z,99120.60
2019-01-29T23:48:32.204Z,99118.82
2019-01-29T23:51:01.082Z,99116.15
2019-01-29T23:53:29.986Z,99106.20
2019-01-29T23:55:58.874Z,99104.44
2019-01-29T23:58:27.754Z,99099.59
